sensor_id;sensor_type;location;lat;lon;timestamp;pressure;altitude;pressure_sealevel;temperature;humidity
79690;BME280;69156;55.932;-3.238;2023-05-07T00:00:18;100753.95;;;10.28;78.61
79690;BME280;69156;55.932;-3.238;2023-05-07T00:02:44;100749.57;;;10.29;78.74
79690;BME280;69156;55.932;-3.238;2023-05-07T00:05:10;100750.80;;;10.39;78.58
79690;BME280;69156;55.932;-3.238;2023-05-07T00:07:36;100752.67;;;10.50;78.38
79690;BME280;69156;55.932;-3.238;2023-05-07T00:10:01;100753.89;;;10.56;77.97
79690;BME280;69156;55.932;-3.238;2023-05-07T00:12:27;100753.43;;;10.52;77.36
79690;BME280;69156;55.932;-3.238;2023-05-07T00:14:52;100752.27;;;10.31;77.78
79690;BME280;69156;55.932;-3.238;2023-05-07T00:17:18;100756.79;;;10.20;78.49
79690;BME280;69156;55.932;-3.238;2023-05-07T00:19:43;100758.55;;;10.04;78.85
79690;BME280;69156;55.932;-3.238;2023-05-07T00:22:09;100760.19;;;10.00;79.20
79690;BME280;69156;55.932;-3.238;2023-05-07T00:24:35;100761.81;;;10.06;79.43
79690;BME280;69156;55.932;-3.238;2023-05-07T00:27:00;100762.18;;;10.11;79.21
79690;BME280;69156;55.932;-3.238;2023-05-07T00:29:26;100767.34;;;10.13;79.50
79690;BME280;69156;55.932;-3.238;2023-05-07T00:31:51;100767.86;;;10.04;79.50
79690;BME280;69156;55.932;-3.238;2023-05-07T00:34:17;100772.21;;;10.04;79.49
79690;BME280;69156;55.932;-3.238;2023-05-07T00:36:42;100776.53;;;10.07;79.25
79690;BME280;69156;55.932;-3.238;2023-05-07T00:39:08;100779.05;;;10.15;78.85
79690;BME280;69156;55.932;-3.238;2023-05-07T00:41:33;100781.00;;;10.15;78.51
79690;BME280;69156;55.932;-3.238;2023-05-07T00:43:59;100779.92;;;10.03;78.57
79690;BME280;69156;55.932;-3.238;2023-05-07T00:46:24;100779.38;;;10.11;78.32
79690;BME280;69156;55.932;-3.238;2023-05-07T00:48:50;100777.73;;;9.92;78.47
79690;BME280;69156;55.932;-3.238;2023-05-07T00:51:17;100773.89;;;9.85;79.07
79690;BME280;69156;55.932;-3.238;2023-05-07T00:53:42;100775.21;;;9.80;78.93
79690;BME280;69156;55.932;-3.238;2023-05-07T00:56:07;100771.81;;;10.02;78.99
79690;BME280;69156;55.932;-3.238;2023-05-07T00:58:32;100771.69;;;9.85;78.64
79690;BME280;69156;55.932;-3.238;2023-05-07T01:00:58;100767.06;;;9.99;78.64
79690;BME280;69156;55.932;-3.238;2023-05-07T01:03:23;100767.23;;;9.86;78.84
79690;BME280;69156;55.932;-3.238;2023-05-07T01:05:48;100767.96;;;10.05;79.19
79690;BME280;69156;55.932;-3.238;2023-05-07T01:08:14;100766.52;;;9.97;78.94
79690;BME280;69156;55.932;-3.238;2023-05-07T01:10:39;100768.56;;;9.99;78.85
79690;BME280;69156;55.932;-3.238;2023-05-07T01:13:04;100769.48;;;9.94;79.28
79690;BME280;69156;55.932;-3.238;2023-05-07T01:15:29;100773.15;;;9.96;78.90
79690;BME280;69156;55.932;-3.238;2023-05-07T01:17:56;100774.80;;;9.80;79.22
79690;BME280;69156;55.932;-3.238;2023-05-07T01:20:20;100770.49;;;10.10;78.83
79690;BME280;69156;55.932;-3.238;2023-05-07T01:22:46;100763.73;;;10.00;78.87
79690;BME280;69156;55.932;-3.238;2023-05-07T01:25:12;100762.96;;;9.91;79.00
79690;BME280;69156;55.932;-3.238;2023-05-07T01:27:37;100771.70;;;9.86;79.39
79690;BME280;69156;55.932;-3.238;2023-05-07T01:30:04;100776.55;;;10.02;78.99
79690;BME280;69156;55.932;-3.238;2023-05-07T01:32:32;100780.29;;;9.77;78.88
79690;BME280;69156;55.932;-3.238;2023-05-07T01:34:54;100782.11;;;9.90;79.08
79690;BME280;69156;55.932;-3.238;2023-05-07T01:37:19;100779.02;;;9.84;79.02
79690;BME280;69156;55.932;-3.238;2023-05-07T01:39:45;100780.78;;;9.97;78.26
79690;BME280;69156;55.932;-3.238;2023-05-07T01:42:10;100785.05;;;9.88;78.66
79690;BME280;69156;55.932;-3.238;2023-05-07T01:44:35;100784.75;;;9.89;78.43
79690;BME280;69156;55.932;-3.238;2023-05-07T01:47:02;100788.51;;;9.86;79.26
79690;BME280;69156;55.932;-3.238;2023-05-07T01:49:26;100781.59;;;9.96;78.07
79690;BME280;69156;55.932;-3.238;2023-05-07T01:51:52;100785.08;;;10.06;78.98
79690;BME280;69156;55.932;-3.238;2023-05-07T01:54:17;100781.30;;;9.96;79.07
79690;BME280;69156;55.932;-3.238;2023-05-07T01:56:44;100784.08;;;9.74;79.23
79690;BME280;69156;55.932;-3.238;2023-05-07T01:59:10;100783.63;;;9.74;79.49
79690;BME280;69156;55.932;-3.238;2023-05-07T02:01:35;100783.21;;;9.75;79.31
79690;BME280;69156;55.932;-3.238;2023-05-07T02:04:01;100780.24;;;9.89;79.17
79690;BME280;69156;55.932;-3.238;2023-05-07T02:06:27;100783.53;;;10.12;78.32
79690;BME280;69156;55.932;-3.238;2023-05-07T02:08:52;100787.81;;;9.99;79.47
79690;BME280;69156;55.932;-3.238;2023-05-07T02:11:17;100791.33;;;9.98;78.61
79690;BME280;69156;55.932;-3.238;2023-05-07T02:13:42;100788.48;;;9.93;78.74
79690;BME280;69156;55.932;-3.238;2023-05-07T02:16:07;100788.97;;;9.99;78.52
79690;BME280;69156;55.932;-3.238;2023-05-07T02:18:33;100790.73;;;9.84;78.53
79690;BME280;69156;55.932;-3.238;2023-05-07T02:20:58;100793.79;;;9.83;78.63
79690;BME280;69156;55.932;-3.238;2023-05-07T02:23:24;100789.49;;;9.89;78.16
79690;BME280;69156;55.932;-3.238;2023-05-07T02:25:49;100789.74;;;9.85;78.12
79690;BME280;69156;55.932;-3.238;2023-05-07T02:28:14;100787.02;;;9.98;78.65
79690;BME280;69156;55.932;-3.238;2023-05-07T02:30:39;100790.26;;;9.68;78.97
79690;BME280;69156;55.932;-3.238;2023-05-07T02:33:06;100791.16;;;9.78;78.56
79690;BME280;69156;55.932;-3.238;2023-05-07T02:35:31;100794.37;;;9.72;78.80
79690;BME280;69156;55.932;-3.238;2023-05-07T02:37:57;100801.69;;;9.65;79.34
79690;BME280;69156;55.932;-3.238;2023-05-07T02:40:23;100797.03;;;9.83;79.55
79690;BME280;69156;55.932;-3.238;2023-05-07T02:42:48;100798.94;;;9.70;79.37
79690;BME280;69156;55.932;-3.238;2023-05-07T02:45:14;100801.46;;;9.62;79.79
79690;BME280;69156;55.932;-3.238;2023-05-07T02:47:39;100803.09;;;9.65;80.10
79690;BME280;69156;55.932;-3.238;2023-05-07T02:50:06;100803.29;;;9.71;79.84
79690;BME280;69156;55.932;-3.238;2023-05-07T02:52:30;100809.03;;;9.87;79.19
79690;BME280;69156;55.932;-3.238;2023-05-07T02:54:56;100810.19;;;9.84;79.61
79690;BME280;69156;55.932;-3.238;2023-05-07T02:57:21;100812.65;;;9.90;79.57
79690;BME280;69156;55.932;-3.238;2023-05-07T02:59:47;100816.35;;;9.81;79.86
79690;BME280;69156;55.932;-3.238;2023-05-07T03:02:12;100815.77;;;9.99;79.35
79690;BME280;69156;55.932;-3.238;2023-05-07T03:04:39;100818.94;;;9.88;78.79
79690;BME280;69156;55.932;-3.238;2023-05-07T03:07:02;100823.71;;;9.78;78.96
79690;BME280;69156;55.932;-3.238;2023-05-07T03:09:28;100826.48;;;9.96;78.90
79690;BME280;69156;55.932;-3.238;2023-05-07T03:11:53;100825.51;;;9.85;79.91
79690;BME280;69156;55.932;-3.238;2023-05-07T03:14:19;100827.82;;;9.75;79.39
79690;BME280;69156;55.932;-3.238;2023-05-07T03:16:45;100830.49;;;9.98;79.29
79690;BME280;69156;55.932;-3.238;2023-05-07T03:19:10;100831.48;;;10.06;79.26
79690;BME280;69156;55.932;-3.238;2023-05-07T03:21:35;100834.26;;;9.83;79.22
79690;BME280;69156;55.932;-3.238;2023-05-07T03:24:00;100831.64;;;9.94;78.38
79690;BME280;69156;55.932;-3.238;2023-05-07T03:26:25;100832.89;;;9.98;79.33
79690;BME280;69156;55.932;-3.238;2023-05-07T03:28:50;100832.91;;;10.10;79.29
79690;BME280;69156;55.932;-3.238;2023-05-07T03:31:16;100834.66;;;9.82;79.44
79690;BME280;69156;55.932;-3.238;2023-05-07T03:33:50;100832.26;;;10.02;79.50
79690;BME280;69156;55.932;-3.238;2023-05-07T03:36:08;100827.95;;;10.08;79.21
79690;BME280;69156;55.932;-3.238;2023-05-07T03:38:33;100830.36;;;9.91;79.45
79690;BME280;69156;55.932;-3.238;2023-05-07T03:40:58;100830.09;;;10.10;78.89
79690;BME280;69156;55.932;-3.238;2023-05-07T03:43:24;100830.61;;;10.11;77.96
79690;BME280;69156;55.932;-3.238;2023-05-07T03:45:50;100831.42;;;9.99;78.55
79690;BME280;69156;55.932;-3.238;2023-05-07T03:48:15;100829.92;;;9.91;78.68
79690;BME280;69156;55.932;-3.238;2023-05-07T03:50:40;100821.98;;;10.17;77.76
79690;BME280;69156;55.932;-3.238;2023-05-07T03:53:06;100818.28;;;10.02;78.27
79690;BME280;69156;55.932;-3.238;2023-05-07T03:55:31;100814.92;;;10.05;78.07
79690;BME280;69156;55.932;-3.238;2023-05-07T03:57:57;100819.22;;;10.05;78.54
79690;BME280;69156;55.932;-3.238;2023-05-07T04:00:22;100818.88;;;10.07;78.76
79690;BME280;69156;55.932;-3.238;2023-05-07T04:02:48;100818.74;;;9.80;78.46
79690;BME280;69156;55.932;-3.238;2023-05-07T04:05:14;100821.85;;;9.94;79.11
79690;BME280;69156;55.932;-3.238;2023-05-07T04:07:39;100824.40;;;10.02;79.22
79690;BME280;69156;55.932;-3.238;2023-05-07T04:10:06;100825.83;;;9.94;79.42
79690;BME280;69156;55.932;-3.238;2023-05-07T04:12:31;100823.20;;;9.98;79.40
79690;BME280;69156;55.932;-3.238;2023-05-07T04:14:56;100817.78;;;10.02;79.77
79690;BME280;69156;55.932;-3.238;2023-05-07T04:17:22;100814.32;;;10.01;79.99
79690;BME280;69156;55.932;-3.238;2023-05-07T04:19:47;100812.28;;;10.09;79.51
79690;BME280;69156;55.932;-3.238;2023-05-07T04:22:13;100812.84;;;10.14;78.87
79690;BME280;69156;55.932;-3.238;2023-05-07T04:24:38;100811.68;;;9.98;79.62
79690;BME280;69156;55.932;-3.238;2023-05-07T04:27:03;100813.52;;;9.87;79.81
79690;BME280;69156;55.932;-3.238;2023-05-07T04:29:28;100815.07;;;10.20;79.29
79690;BME280;69156;55.932;-3.238;2023-05-07T04:31:54;100810.97;;;10.12;78.64
79690;BME280;69156;55.932;-3.238;2023-05-07T04:34:20;100810.07;;;10.12;78.77
79690;BME280;69156;55.932;-3.238;2023-05-07T04:36:46;100807.10;;;10.07;78.88
79690;BME280;69156;55.932;-3.238;2023-05-07T04:39:12;100808.11;;;10.05;78.58
79690;BME280;69156;55.932;-3.238;2023-05-07T04:41:37;100811.24;;;10.07;78.78
79690;BME280;69156;55.932;-3.238;2023-05-07T04:44:03;100812.91;;;10.03;78.98
79690;BME280;69156;55.932;-3.238;2023-05-07T04:46:28;100815.15;;;10.12;78.58
79690;BME280;69156;55.932;-3.238;2023-05-07T04:48:54;100815.84;;;10.09;78.69
79690;BME280;69156;55.932;-3.238;2023-05-07T04:51:20;100815.20;;;10.07;78.87
79690;BME280;69156;55.932;-3.238;2023-05-07T04:53:45;100818.28;;;9.96;78.85
79690;BME280;69156;55.932;-3.238;2023-05-07T04:56:10;100819.40;;;10.08;78.75
79690;BME280;69156;55.932;-3.238;2023-05-07T04:58:36;100822.01;;;10.12;78.82
79690;BME280;69156;55.932;-3.238;2023-05-07T05:01:01;100823.96;;;10.16;78.29
79690;BME280;69156;55.932;-3.238;2023-05-07T05:03:27;100831.52;;;10.15;78.28
79690;BME280;69156;55.932;-3.238;2023-05-07T05:05:53;100840.15;;;10.14;78.47
79690;BME280;69156;55.932;-3.238;2023-05-07T05:08:18;100840.62;;;10.15;78.32
79690;BME280;69156;55.932;-3.238;2023-05-07T05:10:43;100844.15;;;9.99;79.24
79690;BME280;69156;55.932;-3.238;2023-05-07T05:13:09;100842.53;;;10.01;80.07
79690;BME280;69156;55.932;-3.238;2023-05-07T05:15:34;100843.72;;;10.07;79.75
79690;BME280;69156;55.932;-3.238;2023-05-07T05:17:59;100844.63;;;10.05;80.04
79690;BME280;69156;55.932;-3.238;2023-05-07T05:20:25;100845.50;;;10.19;79.70
79690;BME280;69156;55.932;-3.238;2023-05-07T05:22:50;100845.26;;;10.21;79.49
79690;BME280;69156;55.932;-3.238;2023-05-07T05:25:17;100844.21;;;10.15;79.23
79690;BME280;69156;55.932;-3.238;2023-05-07T05:27:42;100849.83;;;10.31;78.34
79690;BME280;69156;55.932;-3.238;2023-05-07T05:30:08;100850.75;;;10.32;78.71
79690;BME280;69156;55.932;-3.238;2023-05-07T05:32:33;100852.89;;;10.26;78.88
79690;BME280;69156;55.932;-3.238;2023-05-07T05:34:59;100856.75;;;10.24;78.97
79690;BME280;69156;55.932;-3.238;2023-05-07T05:37:25;100859.14;;;10.18;79.44
79690;BME280;69156;55.932;-3.238;2023-05-07T05:39:50;100861.28;;;10.22;79.59
79690;BME280;69156;55.932;-3.238;2023-05-07T05:42:16;100857.39;;;10.17;79.85
79690;BME280;69156;55.932;-3.238;2023-05-07T05:44:41;100858.37;;;10.28;79.13
79690;BME280;69156;55.932;-3.238;2023-05-07T05:47:06;100857.06;;;10.29;78.75
79690;BME280;69156;55.932;-3.238;2023-05-07T05:49:32;100860.16;;;10.34;78.73
79690;BME280;69156;55.932;-3.238;2023-05-07T05:51:57;100860.30;;;10.32;79.11
79690;BME280;69156;55.932;-3.238;2023-05-07T05:54:23;100864.43;;;10.28;78.93
79690;BME280;69156;55.932;-3.238;2023-05-07T05:56:49;100866.73;;;10.30;78.93
79690;BME280;69156;55.932;-3.238;2023-05-07T05:59:14;100868.09;;;10.34;78.89
79690;BME280;69156;55.932;-3.238;2023-05-07T06:01:39;100869.67;;;10.31;78.94
79690;BME280;69156;55.932;-3.238;2023-05-07T06:04:05;100868.93;;;10.30;79.16
79690;BME280;69156;55.932;-3.238;2023-05-07T06:06:30;100866.83;;;10.49;77.70
79690;BME280;69156;55.932;-3.238;2023-05-07T06:08:56;100869.78;;;10.35;78.02
79690;BME280;69156;55.932;-3.238;2023-05-07T06:11:20;100866.40;;;10.32;78.07
79690;BME280;69156;55.932;-3.238;2023-05-07T06:13:46;100868.10;;;10.34;78.14
79690;BME280;69156;55.932;-3.238;2023-05-07T06:16:11;100865.38;;;10.28;78.23
79690;BME280;69156;55.932;-3.238;2023-05-07T06:18:37;100870.40;;;10.22;78.37
79690;BME280;69156;55.932;-3.238;2023-05-07T06:21:03;100872.43;;;10.12;78.49
79690;BME280;69156;55.932;-3.238;2023-05-07T06:23:27;100870.35;;;10.12;79.42
79690;BME280;69156;55.932;-3.238;2023-05-07T06:25:53;100866.92;;;10.23;79.33
79690;BME280;69156;55.932;-3.238;2023-05-07T06:28:18;100862.66;;;10.18;79.09
79690;BME280;69156;55.932;-3.238;2023-05-07T06:30:44;100868.83;;;10.25;79.28
79690;BME280;69156;55.932;-3.238;2023-05-07T06:33:09;100870.85;;;10.01;79.78
79690;BME280;69156;55.932;-3.238;2023-05-07T06:35:34;100869.44;;;10.26;78.51
79690;BME280;69156;55.932;-3.238;2023-05-07T06:37:59;100872.62;;;10.22;77.97
79690;BME280;69156;55.932;-3.238;2023-05-07T06:40:24;100875.88;;;10.27;78.45
79690;BME280;69156;55.932;-3.238;2023-05-07T06:42:50;100882.21;;;10.23;79.00
79690;BME280;69156;55.932;-3.238;2023-05-07T06:45:16;100885.90;;;10.16;78.71
79690;BME280;69156;55.932;-3.238;2023-05-07T06:47:40;100887.92;;;10.41;78.23
79690;BME280;69156;55.932;-3.238;2023-05-07T06:50:07;100892.89;;;10.31;78.27
79690;BME280;69156;55.932;-3.238;2023-05-07T06:52:32;100893.57;;;10.37;78.33
79690;BME280;69156;55.932;-3.238;2023-05-07T06:54:57;100895.17;;;10.42;78.29
79690;BME280;69156;55.932;-3.238;2023-05-07T06:57:23;100894.38;;;10.36;77.92
79690;BME280;69156;55.932;-3.238;2023-05-07T06:59:48;100892.99;;;10.48;78.20
79690;BME280;69156;55.932;-3.238;2023-05-07T07:02:13;100894.47;;;10.50;78.64
79690;BME280;69156;55.932;-3.238;2023-05-07T07:04:39;100897.20;;;10.53;78.55
79690;BME280;69156;55.932;-3.238;2023-05-07T07:07:04;100895.75;;;10.52;78.46
79690;BME280;69156;55.932;-3.238;2023-05-07T07:09:29;100896.12;;;10.35;78.59
79690;BME280;69156;55.932;-3.238;2023-05-07T07:11:55;100898.98;;;10.71;77.41
79690;BME280;69156;55.932;-3.238;2023-05-07T07:14:20;100901.12;;;10.52;78.45
79690;BME280;69156;55.932;-3.238;2023-05-07T07:16:46;100903.12;;;10.62;78.22
79690;BME280;69156;55.932;-3.238;2023-05-07T07:19:12;100902.92;;;10.52;78.56
79690;BME280;69156;55.932;-3.238;2023-05-07T07:21:38;100906.33;;;10.52;78.57
79690;BME280;69156;55.932;-3.238;2023-05-07T07:24:03;100905.57;;;10.68;78.76
79690;BME280;69156;55.932;-3.238;2023-05-07T07:26:29;100902.86;;;10.62;78.76
79690;BME280;69156;55.932;-3.238;2023-05-07T07:28:54;100902.26;;;10.68;77.74
79690;BME280;69156;55.932;-3.238;2023-05-07T07:31:19;100907.97;;;10.83;77.86
79690;BME280;69156;55.932;-3.238;2023-05-07T07:33:44;100908.61;;;10.76;78.40
79690;BME280;69156;55.932;-3.238;2023-05-07T07:36:10;100911.43;;;10.93;77.71
79690;BME280;69156;55.932;-3.238;2023-05-07T07:38:35;100911.03;;;10.90;77.67
79690;BME280;69156;55.932;-3.238;2023-05-07T07:41:01;100908.95;;;10.81;77.52
79690;BME280;69156;55.932;-3.238;2023-05-07T07:43:26;100905.68;;;10.93;77.82
79690;BME280;69156;55.932;-3.238;2023-05-07T07:45:51;100903.76;;;10.98;77.89
79690;BME280;69156;55.932;-3.238;2023-05-07T07:48:17;100904.65;;;11.11;77.11
79690;BME280;69156;55.932;-3.238;2023-05-07T07:50:42;100909.48;;;11.09;76.71
79690;BME280;69156;55.932;-3.238;2023-05-07T07:53:07;100908.52;;;11.23;76.09
79690;BME280;69156;55.932;-3.238;2023-05-07T07:55:38;100914.52;;;11.22;76.79
79690;BME280;69156;55.932;-3.238;2023-05-07T07:57:58;100917.96;;;11.24;76.33
79690;BME280;69156;55.932;-3.238;2023-05-07T08:00:23;100921.27;;;11.34;76.95
79690;BME280;69156;55.932;-3.238;2023-05-07T08:02:49;100922.30;;;11.24;76.47
79690;BME280;69156;55.932;-3.238;2023-05-07T08:05:15;100925.60;;;11.28;76.79
79690;BME280;69156;55.932;-3.238;2023-05-07T08:07:40;100930.26;;;11.36;76.38
79690;BME280;69156;55.932;-3.238;2023-05-07T08:10:06;100929.33;;;11.64;75.60
79690;BME280;69156;55.932;-3.238;2023-05-07T08:12:31;100935.33;;;11.73;75.57
79690;BME280;69156;55.932;-3.238;2023-05-07T08:14:56;100942.68;;;11.47;75.89
79690;BME280;69156;55.932;-3.238;2023-05-07T08:17:21;100944.70;;;11.63;75.62
79690;BME280;69156;55.932;-3.238;2023-05-07T08:19:47;100947.73;;;11.45;75.84
79690;BME280;69156;55.932;-3.238;2023-05-07T08:22:12;100944.90;;;11.48;75.89
79690;BME280;69156;55.932;-3.238;2023-05-07T08:24:38;100946.10;;;11.64;74.73
79690;BME280;69156;55.932;-3.238;2023-05-07T08:27:03;100946.86;;;11.67;73.91
79690;BME280;69156;55.932;-3.238;2023-05-07T08:29:28;100943.60;;;11.48;75.57
79690;BME280;69156;55.932;-3.238;2023-05-07T08:31:54;100941.67;;;11.48;75.65
79690;BME280;69156;55.932;-3.238;2023-05-07T08:34:20;100942.02;;;11.74;74.66
79690;BME280;69156;55.932;-3.238;2023-05-07T08:36:45;100944.90;;;11.71;74.30
79690;BME280;69156;55.932;-3.238;2023-05-07T08:39:11;100950.10;;;11.68;74.69
79690;BME280;69156;55.932;-3.238;2023-05-07T08:41:36;100955.10;;;11.75;74.15
79690;BME280;69156;55.932;-3.238;2023-05-07T08:44:03;100956.49;;;11.80;74.34
79690;BME280;69156;55.932;-3.238;2023-05-07T08:46:31;100956.34;;;11.85;73.67
79690;BME280;69156;55.932;-3.238;2023-05-07T08:48:52;100954.48;;;11.69;73.70
79690;BME280;69156;55.932;-3.238;2023-05-07T08:51:20;100951.72;;;11.59;74.08
79690;BME280;69156;55.932;-3.238;2023-05-07T08:53:43;100955.28;;;11.53;74.80
79690;BME280;69156;55.932;-3.238;2023-05-07T08:56:09;100959.65;;;11.66;74.20
79690;BME280;69156;55.932;-3.238;2023-05-07T08:58:33;100960.97;;;11.73;74.25
79690;BME280;69156;55.932;-3.238;2023-05-07T09:01:00;100961.14;;;11.83;73.97
79690;BME280;69156;55.932;-3.238;2023-05-07T09:03:25;100961.42;;;11.75;74.21
79690;BME280;69156;55.932;-3.238;2023-05-07T09:05:50;100959.61;;;11.76;74.30
79690;BME280;69156;55.932;-3.238;2023-05-07T09:08:16;100963.89;;;11.75;74.97
79690;BME280;69156;55.932;-3.238;2023-05-07T09:10:41;100964.99;;;11.65;74.53
79690;BME280;69156;55.932;-3.238;2023-05-07T09:13:07;100963.43;;;11.91;74.76
79690;BME280;69156;55.932;-3.238;2023-05-07T09:15:32;100958.73;;;11.95;73.81
79690;BME280;69156;55.932;-3.238;2023-05-07T09:17:59;100959.96;;;11.93;74.37
79690;BME280;69156;55.932;-3.238;2023-05-07T09:20:23;100965.05;;;11.94;75.10
79690;BME280;69156;55.932;-3.238;2023-05-07T09:22:49;100967.12;;;11.92;75.24
79690;BME280;69156;55.932;-3.238;2023-05-07T09:25:13;100965.10;;;11.98;75.33
79690;BME280;69156;55.932;-3.238;2023-05-07T09:27:40;100961.99;;;11.78;74.79
79690;BME280;69156;55.932;-3.238;2023-05-07T09:30:05;100957.29;;;11.98;74.92
79690;BME280;69156;55.932;-3.238;2023-05-07T09:32:34;100958.22;;;12.14;74.41
79690;BME280;69156;55.932;-3.238;2023-05-07T09:34:56;100954.10;;;12.17;73.88
79690;BME280;69156;55.932;-3.238;2023-05-07T09:37:21;100951.78;;;12.24;73.49
79690;BME280;69156;55.932;-3.238;2023-05-07T09:39:49;100951.51;;;12.50;72.53
79690;BME280;69156;55.932;-3.238;2023-05-07T09:42:12;100957.90;;;12.65;71.50
79690;BME280;69156;55.932;-3.238;2023-05-07T09:44:38;100959.61;;;12.41;71.45
79690;BME280;69156;55.932;-3.238;2023-05-07T09:47:05;100958.20;;;12.53;71.92
79690;BME280;69156;55.932;-3.238;2023-05-07T09:49:29;100958.46;;;12.59;70.77
79690;BME280;69156;55.932;-3.238;2023-05-07T09:51:54;100959.90;;;12.82;71.46
79690;BME280;69156;55.932;-3.238;2023-05-07T09:54:19;100960.44;;;12.88;72.24
79690;BME280;69156;55.932;-3.238;2023-05-07T09:56:45;100958.80;;;12.88;72.66
79690;BME280;69156;55.932;-3.238;2023-05-07T09:59:13;100964.87;;;13.27;70.69
79690;BME280;69156;55.932;-3.238;2023-05-07T10:01:36;100968.16;;;13.09;70.47
79690;BME280;69156;55.932;-3.238;2023-05-07T10:04:02;100965.95;;;13.33;70.90
79690;BME280;69156;55.932;-3.238;2023-05-07T10:06:28;100960.09;;;13.33;68.65
79690;BME280;69156;55.932;-3.238;2023-05-07T10:08:54;100956.59;;;13.37;69.09
79690;BME280;69156;55.932;-3.238;2023-05-07T10:11:19;100957.78;;;13.53;69.44
79690;BME280;69156;55.932;-3.238;2023-05-07T10:13:46;100959.08;;;13.64;69.59
79690;BME280;69156;55.932;-3.238;2023-05-07T10:16:10;100958.08;;;13.55;68.59
79690;BME280;69156;55.932;-3.238;2023-05-07T10:18:37;100959.98;;;13.61;68.99
79690;BME280;69156;55.932;-3.238;2023-05-07T10:21:07;100966.26;;;13.66;68.87
79690;BME280;69156;55.932;-3.238;2023-05-07T10:23:27;100972.35;;;13.99;69.37
79690;BME280;69156;55.932;-3.238;2023-05-07T10:25:52;100975.70;;;13.88;68.25
79690;BME280;69156;55.932;-3.238;2023-05-07T10:28:19;100977.77;;;13.80;69.58
79690;BME280;69156;55.932;-3.238;2023-05-07T10:30:52;100977.69;;;13.87;67.80
79690;BME280;69156;55.932;-3.238;2023-05-07T10:33:10;100974.12;;;14.04;66.01
79690;BME280;69156;55.932;-3.238;2023-05-07T10:35:38;100975.68;;;13.78;66.59
79690;BME280;69156;55.932;-3.238;2023-05-07T10:38:00;100979.64;;;13.84;69.02
79690;BME280;69156;55.932;-3.238;2023-05-07T10:40:27;100977.61;;;14.17;67.19
79690;BME280;69156;55.932;-3.238;2023-05-07T10:42:55;100979.70;;;14.24;68.37
79690;BME280;69156;55.932;-3.238;2023-05-07T10:45:18;100979.94;;;14.47;66.72
79690;BME280;69156;55.932;-3.238;2023-05-07T10:48:16;100977.97;;;14.42;65.76
79690;BME280;69156;55.932;-3.238;2023-05-07T10:50:24;100977.34;;;14.30;66.23
79690;BME280;69156;55.932;-3.238;2023-05-07T10:52:34;100973.37;;;14.31;66.59
79690;BME280;69156;55.932;-3.238;2023-05-07T10:55:32;100971.47;;;14.22;66.88
79690;BME280;69156;55.932;-3.238;2023-05-07T10:57:34;100970.32;;;14.44;67.44
79690;BME280;69156;55.932;-3.238;2023-05-07T10:59:56;100971.91;;;14.23;66.73
79690;BME280;69156;55.932;-3.238;2023-05-07T11:02:21;100971.08;;;14.64;65.06
79690;BME280;69156;55.932;-3.238;2023-05-07T11:05:18;100970.57;;;14.65;66.40
79690;BME280;69156;55.932;-3.238;2023-05-07T11:07:24;100961.35;;;14.45;67.01
79690;BME280;69156;55.932;-3.238;2023-05-07T11:09:55;100958.85;;;14.64;66.81
79690;BME280;69156;55.932;-3.238;2023-05-07T11:12:03;100960.22;;;14.56;66.26
79690;BME280;69156;55.932;-3.238;2023-05-07T11:14:44;100961.66;;;14.43;67.56
79690;BME280;69156;55.932;-3.238;2023-05-07T11:17:02;100963.99;;;14.24;67.89
79690;BME280;69156;55.932;-3.238;2023-05-07T11:19:47;100963.34;;;14.34;66.71
79690;BME280;69156;55.932;-3.238;2023-05-07T11:21:44;100965.36;;;14.36;66.36
79690;BME280;69156;55.932;-3.238;2023-05-07T11:24:10;100968.54;;;14.53;66.82
79690;BME280;69156;55.932;-3.238;2023-05-07T11:26:44;100969.59;;;14.49;65.72
79690;BME280;69156;55.932;-3.238;2023-05-07T11:29:00;100966.41;;;14.24;66.32
79690;BME280;69156;55.932;-3.238;2023-05-07T11:31:28;100962.62;;;14.25;65.61
79690;BME280;69156;55.932;-3.238;2023-05-07T11:33:53;100961.74;;;14.20;66.82
79690;BME280;69156;55.932;-3.238;2023-05-07T11:36:19;100967.39;;;14.33;66.60
79690;BME280;69156;55.932;-3.238;2023-05-07T11:38:44;100969.11;;;14.38;67.76
79690;BME280;69156;55.932;-3.238;2023-05-07T11:41:09;100968.01;;;14.43;67.19
79690;BME280;69156;55.932;-3.238;2023-05-07T11:43:35;100964.77;;;14.43;67.30
79690;BME280;69156;55.932;-3.238;2023-05-07T11:46:09;100965.92;;;14.51;67.44
79690;BME280;69156;55.932;-3.238;2023-05-07T11:48:26;100964.52;;;14.37;67.39
79690;BME280;69156;55.932;-3.238;2023-05-07T11:50:53;100961.34;;;14.56;67.26
79690;BME280;69156;55.932;-3.238;2023-05-07T11:53:17;100958.29;;;14.51;66.64
79690;BME280;69156;55.932;-3.238;2023-05-07T11:55:44;100961.66;;;14.47;66.88
79690;BME280;69156;55.932;-3.238;2023-05-07T11:58:11;100967.69;;;14.38;67.03
79690;BME280;69156;55.932;-3.238;2023-05-07T12:00:34;100965.74;;;14.32;67.42
79690;BME280;69156;55.932;-3.238;2023-05-07T12:03:03;100960.05;;;14.46;67.52
79690;BME280;69156;55.932;-3.238;2023-05-07T12:05:28;100957.64;;;14.68;66.70
79690;BME280;69156;55.932;-3.238;2023-05-07T12:07:56;100959.23;;;14.70;66.96
79690;BME280;69156;55.932;-3.238;2023-05-07T12:10:17;100964.87;;;14.57;66.17
79690;BME280;69156;55.932;-3.238;2023-05-07T12:12:46;100962.20;;;14.70;66.32
79690;BME280;69156;55.932;-3.238;2023-05-07T12:15:09;100962.79;;;14.53;66.13
79690;BME280;69156;55.932;-3.238;2023-05-07T12:17:33;100966.13;;;14.72;66.55
79690;BME280;69156;55.932;-3.238;2023-05-07T12:19:59;100962.25;;;14.82;66.15
79690;BME280;69156;55.932;-3.238;2023-05-07T12:22:24;100966.94;;;14.92;65.47
79690;BME280;69156;55.932;-3.238;2023-05-07T12:24:56;100967.65;;;15.22;64.90
79690;BME280;69156;55.932;-3.238;2023-05-07T12:27:15;100965.68;;;15.23;64.52
79690;BME280;69156;55.932;-3.238;2023-05-07T12:29:44;100956.22;;;15.46;63.94
79690;BME280;69156;55.932;-3.238;2023-05-07T12:32:06;100958.22;;;15.18;63.65